Time;durP1;ratioP1;P1;durP2;ratioP2;P2;SDS_P1;SDS_P2;PMS_P1;PMS_P2;Temp;Humidity;BMP_temperature;BMP_pressure;BME280_temperature;BME280_humidity;BME280_pressure;Samples;Min_cycle;Max_cycle;Signal;HPM_P1;HPM_P2
2022/04/03 00:02:34;;;;;;;68.70;26.33;;;-0.60;99.90;;;;;;4401602;28;656585;-69
2022/04/03 00:05:22;;;;;;;52.33;24.57;;;-0.70;99.90;;;;;;4383598;28;656634;-69
2022/04/03 00:08:09;;;;;;;52.47;24.13;;;-0.80;99.90;;;;;;4401737;28;656554;-69
2022/04/03 00:10:56;;;;;;;56.00;22.60;;;-0.80;99.90;;;;;;4384560;28;657062;-69
2022/04/03 00:13:44;;;;;;;55.60;21.50;;;-1.00;99.90;;;;;;4403615;28;656515;-69
2022/04/03 00:16:33;;;;;;;56.13;23.37;;;-1.10;99.90;;;;;;4380862;28;656757;-69
2022/04/03 00:19:20;;;;;;;56.20;22.57;;;-1.10;99.90;;;;;;4381038;28;657153;-69
2022/04/03 00:22:08;;;;;;;61.77;22.87;;;-1.10;99.90;;;;;;4402188;28;657341;-69
2022/04/03 00:24:55;;;;;;;46.10;19.27;;;-1.10;99.90;;;;;;4392358;28;656870;-69
2022/04/03 00:27:43;;;;;;;45.73;17.63;;;-1.00;99.90;;;;;;4403365;28;657594;-69
2022/04/03 00:30:30;;;;;;;38.03;16.77;;;-0.90;99.90;;;;;;4391279;28;657409;-69
2022/04/03 00:33:19;;;;;;;40.77;16.80;;;-0.90;99.90;;;;;;4404468;28;657464;-69
2022/04/03 00:36:07;;;;;;;30.73;14.43;;;-0.90;99.90;;;;;;4389175;28;657534;-69
2022/04/03 00:38:54;;;;;;;34.73;14.37;;;-1.10;99.90;;;;;;4407995;28;656200;-69
2022/04/03 00:41:41;;;;;;;30.90;14.07;;;-1.10;99.90;;;;;;4383836;28;656770;-69
2022/04/03 00:44:29;;;;;;;34.47;13.13;;;-1.20;99.90;;;;;;4401738;28;657564;-69
2022/04/03 00:47:17;;;;;;;34.17;12.63;;;-1.20;99.90;;;;;;4383627;28;656633;-69
2022/04/03 00:50:06;;;;;;;30.90;11.67;;;-1.20;99.90;;;;;;4404102;28;656353;-69
2022/04/03 00:52:54;;;;;;;26.95;11.25;;;-1.30;99.90;;;;;;4379851;28;656507;-69
2022/04/03 00:55:41;;;;;;;27.40;11.50;;;-1.40;99.90;;;;;;4381218;28;657015;-69
2022/04/03 00:58:29;;;;;;;21.73;10.20;;;-1.40;99.90;;;;;;4401603;28;657594;-69
2022/04/03 01:01:16;;;;;;;25.37;10.67;;;-1.40;99.90;;;;;;4379193;28;656749;-69
2022/04/03 01:04:04;;;;;;;21.35;9.80;;;-1.50;99.90;;;;;;4402313;28;657307;-69
2022/04/03 01:06:52;;;;;;;29.23;10.20;;;-1.50;99.90;;;;;;4385215;28;656029;-69
2022/04/03 01:09:40;;;;;;;24.00;10.07;;;-1.50;99.90;;;;;;4402627;28;656970;-69
2022/04/03 01:12:28;;;;;;;23.90;9.63;;;-1.50;99.90;;;;;;4403817;28;656337;-69
2022/04/03 01:15:15;;;;;;;26.40;10.30;;;-1.60;99.90;;;;;;4383387;28;655656;-69
2022/04/03 01:18:03;;;;;;;29.70;10.67;;;-1.50;99.90;;;;;;4403267;28;657458;-69
2022/04/03 01:20:52;;;;;;;30.07;9.73;;;-1.70;99.90;;;;;;4389205;28;657027;-69
2022/04/03 01:23:41;;;;;;;20.70;8.93;;;-1.70;99.90;;;;;;4404821;28;655634;-69
2022/04/03 01:26:30;;;;;;;22.10;9.00;;;-1.70;99.90;;;;;;4383632;28;655138;-69
2022/04/03 01:29:17;;;;;;;21.87;9.63;;;-1.80;99.90;;;;;;4385862;28;655318;-69
2022/04/03 01:32:05;;;;;;;17.73;8.23;;;-1.80;99.90;;;;;;4404644;28;655799;-69
2022/04/03 01:34:53;;;;;;;19.00;7.60;;;-1.80;99.90;;;;;;4385319;28;655857;-69
2022/04/03 01:37:40;;;;;;;20.73;8.73;;;-1.80;99.90;;;;;;4389869;28;655717;-69
2022/04/03 01:40:28;;;;;;;18.47;7.57;;;-1.90;99.90;;;;;;4404154;28;657149;-68
2022/04/03 01:43:17;;;;;;;23.43;8.90;;;-1.90;99.90;;;;;;4391146;28;655549;-69
2022/04/03 01:46:04;;;;;;;18.23;7.47;;;-1.90;99.90;;;;;;4405059;28;655014;-68
2022/04/03 01:48:51;;;;;;;20.57;7.83;;;-1.80;99.90;;;;;;4388364;28;655563;-69
2022/04/03 01:51:39;;;;;;;15.17;6.07;;;-1.80;99.90;;;;;;4405297;28;655417;-68
2022/04/03 01:54:26;;;;;;;20.33;8.00;;;-1.80;99.90;;;;;;4383589;28;655932;-69
2022/04/03 01:57:13;;;;;;;18.73;6.73;;;-1.90;99.90;;;;;;4406199;28;655410;-69
2022/04/03 02:00:05;;;;;;;16.83;7.53;;;-1.90;99.90;;;;;;4377097;28;655424;-69
2022/04/03 02:02:53;;;;;;;17.33;7.33;;;-2.00;99.90;;;;;;4372767;28;656931;-69
2022/04/03 02:05:40;;;;;;;8.50;4.17;;;-2.00;99.90;;;;;;4391941;28;655952;-69
2022/04/03 02:08:28;;;;;;;16.90;6.60;;;-1.90;99.90;;;;;;4404595;28;655582;-69
2022/04/03 02:11:15;;;;;;;18.80;7.80;;;-2.00;99.90;;;;;;4393347;28;655577;-69
2022/04/03 02:14:03;;;;;;;17.00;7.27;;;-2.00;99.90;;;;;;4410233;28;656371;-69
2022/04/03 02:16:53;;;;;;;19.43;7.30;;;-2.10;99.90;;;;;;4394533;28;656038;-69
2022/04/03 02:19:40;;;;;;;17.00;7.43;;;-2.10;99.90;;;;;;4390197;28;656085;-69
2022/04/03 02:22:28;;;;;;;8.50;3.90;;;-2.10;99.90;;;;;;4405336;28;656885;-69
2022/04/03 02:25:15;;;;;;;17.38;7.35;;;-2.10;99.90;;;;;;4391459;28;654959;-69
2022/04/03 02:28:03;;;;;;;19.20;7.80;;;-2.20;99.90;;;;;;4404183;28;656548;-69
2022/04/03 02:30:51;;;;;;;12.00;5.23;;;-2.30;99.90;;;;;;4383000;28;655830;-69
2022/04/03 02:33:39;;;;;;;20.30;5.80;;;-2.30;99.90;;;;;;4404827;28;656419;-69
2022/04/03 02:36:27;;;;;;;22.47;8.07;;;-2.30;99.90;;;;;;4379697;28;655831;-69
2022/04/03 02:39:14;;;;;;;16.07;6.17;;;-2.30;99.90;;;;;;4405619;28;656895;-69
2022/04/03 02:42:04;;;;;;;25.77;10.05;;;-2.30;99.90;;;;;;4378702;28;655516;-69
2022/04/03 02:44:52;;;;;;;20.03;8.20;;;-2.30;99.90;;;;;;4382405;28;657044;-69
2022/04/03 02:47:39;;;;;;;29.27;9.97;;;-2.30;99.90;;;;;;4401928;28;655132;-69
2022/04/03 02:50:28;;;;;;;20.97;8.77;;;-2.50;99.90;;;;;;4383225;28;655885;-69
2022/04/03 02:53:15;;;;;;;31.03;10.70;;;-2.30;99.90;;;;;;4376902;28;655633;-69
2022/04/03 02:56:03;;;;;;;26.57;10.27;;;-2.40;99.90;;;;;;4397606;28;658007;-69
2022/04/03 02:58:50;;;;;;;27.77;9.00;;;-2.50;99.90;;;;;;4391950;28;656642;-69
2022/04/03 03:01:38;;;;;;;25.40;9.63;;;-2.60;99.90;;;;;;4401884;28;656380;-69
2022/04/03 03:04:25;;;;;;;21.13;8.97;;;-2.50;99.90;;;;;;4392141;28;655787;-69
2022/04/03 03:07:14;;;;;;;23.87;9.47;;;-2.60;99.90;;;;;;4404692;28;656716;-69
2022/04/03 03:10:02;;;;;;;25.00;9.77;;;-2.70;99.90;;;;;;4387253;28;655295;-69
2022/04/03 03:12:50;;;;;;;24.37;8.73;;;-2.80;99.90;;;;;;4402107;28;655480;-69
2022/04/03 03:15:37;;;;;;;22.60;9.52;;;-2.90;99.90;;;;;;4384379;28;655984;-69
2022/04/03 03:18:25;;;;;;;20.10;9.00;;;-2.90;99.90;;;;;;4403977;28;655262;-69
2022/04/03 03:21:12;;;;;;;22.20;9.27;;;-2.90;99.90;;;;;;4381537;28;655890;-69
2022/04/03 03:24:01;;;;;;;18.50;8.15;;;-2.90;99.90;;;;;;4402189;28;655659;-69
2022/04/03 03:26:49;;;;;;;26.90;10.57;;;-3.00;99.90;;;;;;4380157;28;656891;-69
2022/04/03 03:29:36;;;;;;;19.77;9.37;;;-2.80;99.90;;;;;;4381804;28;656694;-69
2022/04/03 03:32:24;;;;;;;19.13;8.67;;;-2.70;99.90;;;;;;4405351;28;655239;-69
2022/04/03 03:35:11;;;;;;;34.07;8.77;;;-2.80;99.90;;;;;;4393877;28;655765;-69
2022/04/03 03:37:59;;;;;;;23.67;9.20;;;-2.80;99.90;;;;;;4405867;28;654998;-69
2022/04/03 03:40:48;;;;;;;17.97;7.20;;;-2.70;99.90;;;;;;4387180;28;655184;-69
2022/04/03 03:43:35;;;;;;;24.23;8.87;;;-2.70;99.90;;;;;;4391405;28;655788;-69
2022/04/03 03:46:23;;;;;;;21.50;9.13;;;-2.80;99.90;;;;;;4409925;28;656289;-69
2022/04/03 03:49:10;;;;;;;15.07;5.60;;;-2.80;99.90;;;;;;4395994;28;655822;-69
2022/04/03 03:51:58;;;;;;;18.53;8.03;;;-2.80;99.90;;;;;;4409355;28;655993;-69
2022/04/03 03:54:45;;;;;;;9.00;4.50;;;-2.80;99.90;;;;;;4395051;28;655255;-69
2022/04/03 03:57:34;;;;;;;17.77;7.90;;;-2.70;99.90;;;;;;4406940;28;655105;-69
2022/04/03 04:00:21;;;;;;;13.03;5.47;;;-2.80;99.90;;;;;;4389536;28;656634;-69
2022/04/03 04:03:09;;;;;;;20.43;7.17;;;-2.80;99.90;;;;;;4403647;28;655704;-69
2022/04/03 04:05:56;;;;;;;16.40;7.90;;;-2.90;99.90;;;;;;4388190;28;655916;-69
2022/04/03 04:08:44;;;;;;;18.02;8.43;;;-2.90;99.90;;;;;;4413882;28;655808;-69
2022/04/03 04:11:31;;;;;;;19.83;8.37;;;-3.00;99.90;;;;;;4386336;28;655924;-69
2022/04/03 04:14:20;;;;;;;16.90;7.63;;;-2.90;99.90;;;;;;4408164;28;655898;-69
2022/04/03 04:17:08;;;;;;;21.60;8.40;;;-2.80;99.90;;;;;;4381440;28;656650;-69
2022/04/03 04:19:56;;;;;;;14.70;6.57;;;-2.80;99.90;;;;;;4388126;28;655121;-69
2022/04/03 04:22:44;;;;;;;31.00;8.90;;;-2.90;99.90;;;;;;4409965;28;655796;-69
2022/04/03 04:25:31;;;;;;;14.37;6.60;;;-2.90;99.90;;;;;;4383886;28;655587;-69
2022/04/03 04:28:19;;;;;;;23.23;5.07;;;-2.90;99.90;;;;;;4412054;28;655940;-69
2022/04/03 04:31:08;;;;;;;17.87;7.67;;;-2.80;99.90;;;;;;4388268;28;655756;-69
2022/04/03 04:33:55;;;;;;;17.57;7.10;;;-2.80;99.90;;;;;;4389813;28;655376;-69
2022/04/03 04:36:43;;;;;;;22.50;7.60;;;-2.80;99.90;;;;;;4407249;28;656386;-69
2022/04/03 04:39:31;;;;;;;15.57;6.77;;;-2.80;99.90;;;;;;4395394;28;655901;-69
2022/04/03 04:42:18;;;;;;;13.40;5.97;;;-2.70;99.90;;;;;;4414338;28;655973;-69
2022/04/03 04:45:09;;;;;;;18.63;7.87;;;-2.70;99.90;;;;;;4386972;28;655608;-69
2022/04/03 04:47:59;;;;;;;17.03;7.40;;;-2.70;99.90;;;;;;4381908;28;655864;-69
2022/04/03 04:50:46;;;;;;;23.27;8.30;;;-2.70;99.90;;;;;;4382818;28;655489;-69
2022/04/03 04:53:35;;;;;;;15.70;7.93;;;-2.70;99.90;;;;;;4405076;28;655663;-69
2022/04/03 04:56:22;;;;;;;17.43;6.90;;;-2.70;99.90;;;;;;4382384;28;655940;-69
2022/04/03 04:59:10;;;;;;;18.40;8.00;;;-2.70;99.90;;;;;;4399469;28;656354;-69
2022/04/03 05:01:59;;;;;;;20.50;7.90;;;-2.60;99.90;;;;;;4382739;28;657044;-69
2022/04/03 05:04:48;;;;;;;15.30;6.80;;;-2.60;99.90;;;;;;4385628;28;655159;-69
2022/04/03 05:07:35;;;;;;;16.83;7.67;;;-2.40;99.90;;;;;;4387425;28;655203;-69
2022/04/03 05:10:23;;;;;;;17.70;8.23;;;-2.30;99.90;;;;;;4399851;28;656174;-69
2022/04/03 05:13:11;;;;;;;18.67;8.37;;;-2.40;99.90;;;;;;4385845;28;655525;-69
2022/04/03 05:15:58;;;;;;;8.57;4.40;;;-2.30;99.90;;;;;;4404798;28;658396;-69
2022/04/03 05:18:45;;;;;;;18.13;8.03;;;-2.30;99.90;;;;;;4388213;28;654919;-69
2022/04/03 05:21:34;;;;;;;28.20;8.50;;;-2.20;99.90;;;;;;4400689;28;656122;-69
2022/04/03 05:24:21;;;;;;;21.27;7.00;;;-2.10;99.90;;;;;;4384063;28;655430;-69
2022/04/03 05:27:09;;;;;;;10.80;5.90;;;-2.00;99.90;;;;;;4402234;28;656217;-69
2022/04/03 05:29:56;;;;;;;22.17;7.80;;;-1.90;99.90;;;;;;4380281;28;655759;-69
2022/04/03 05:32:43;;;;;;;8.77;3.70;;;-1.80;99.90;;;;;;4405340;28;656068;-69
2022/04/03 05:35:31;;;;;;;17.27;5.83;;;-1.70;99.90;;;;;;4385876;28;654472;-69
2022/04/03 05:38:20;;;;;;;17.40;6.33;;;-1.60;99.90;;;;;;4400601;28;656126;-69
2022/04/03 05:41:07;;;;;;;24.35;8.48;;;-1.50;99.90;;;;;;4382305;28;655886;-69
2022/04/03 05:43:55;;;;;;;17.90;7.63;;;-1.60;99.90;;;;;;4401158;28;656178;-69
2022/04/03 05:46:43;;;;;;;21.87;8.37;;;-1.60;99.90;;;;;;4401332;28;656398;-69
2022/04/03 05:49:31;;;;;;;17.70;8.35;;;-1.60;99.90;;;;;;4389806;28;656064;-69
2022/04/03 05:52:18;;;;;;;20.67;8.07;;;-1.50;99.90;;;;;;4398747;28;656039;-69
2022/04/03 05:55:08;;;;;;;17.53;7.27;;;-1.50;99.90;;;;;;4384817;28;655562;-69
2022/04/03 05:57:56;;;;;;;143.43;11.43;;;-1.30;99.90;;;;;;4382701;28;655436;-69
2022/04/03 06:00:43;;;;;;;18.85;7.68;;;-1.20;99.90;;;;;;4399367;28;658057;-69
2022/04/03 06:03:31;;;;;;;17.10;7.20;;;-1.10;99.90;;;;;;4379765;28;656017;-69
2022/04/03 06:06:18;;;;;;;17.93;8.10;;;-0.90;99.90;;;;;;4399588;28;655930;-69
2022/04/03 06:09:05;;;;;;;12.60;5.57;;;-0.70;99.90;;;;;;4381351;28;655600;-69
2022/04/03 06:11:54;;;;;;;21.20;8.23;;;-0.60;99.90;;;;;;4400761;28;656338;-69
2022/04/03 06:14:41;;;;;;;20.77;7.87;;;-0.40;99.90;;;;;;4383950;28;655392;-69
2022/04/03 06:17:29;;;;;;;17.97;7.13;;;-0.20;99.90;;;;;;4400972;28;655860;-69
2022/04/03 06:20:17;;;;;;;16.47;7.73;;;-0.20;99.90;;;;;;4382614;28;655492;-69
2022/04/03 06:23:04;;;;;;;16.17;7.83;;;-0.10;99.90;;;;;;4413963;28;655257;-68
2022/04/03 06:25:54;;;;;;;16.63;7.47;;;0.00;99.90;;;;;;4378213;28;655628;-68
2022/04/03 06:28:42;;;;;;;16.93;8.33;;;0.10;99.90;;;;;;4386491;28;655014;-69
2022/04/03 06:31:30;;;;;;;8.60;3.13;;;0.20;99.90;;;;;;4402214;28;654463;-68
2022/04/03 06:34:18;;;;;;;15.73;5.13;;;0.40;99.90;;;;;;4409548;28;655054;-68
2022/04/03 06:37:06;;;;;;;16.70;7.83;;;0.50;99.90;;;;;;4396953;28;654405;-68
2022/04/03 06:39:53;;;;;;;16.17;7.53;;;0.30;99.90;;;;;;4411541;28;655266;-68
2022/04/03 06:42:40;;;;;;;18.42;8.15;;;0.30;99.90;;;;;;4382886;28;654422;-68
2022/04/03 06:45:31;;;;;;;19.97;8.03;;;0.40;99.90;;;;;;4407992;28;654322;-68
2022/04/03 06:48:18;;;;;;;17.53;8.17;;;0.40;99.90;;;;;;4384749;28;655595;-68
2022/04/03 06:51:05;;;;;;;11.32;5.85;;;0.40;99.90;;;;;;4393904;28;654318;-68
2022/04/03 06:53:53;;;;;;;14.30;7.20;;;0.50;99.90;;;;;;4409287;28;654343;-68
2022/04/03 06:56:40;;;;;;;19.80;7.73;;;0.50;99.90;;;;;;4395788;28;654102;-68
2022/04/03 06:59:29;;;;;;;17.80;7.97;;;0.60;99.90;;;;;;4409435;28;655409;-68
2022/04/03 07:02:17;;;;;;;19.73;7.73;;;0.70;99.90;;;;;;4387936;28;656076;-68
2022/04/03 07:05:05;;;;;;;16.20;7.77;;;0.80;99.90;;;;;;4407327;28;654378;-68
2022/04/03 07:07:53;;;;;;;19.70;8.00;;;1.10;99.90;;;;;;4385234;28;655597;-68
2022/04/03 07:10:40;;;;;;;18.33;7.78;;;1.30;99.60;;;;;;4392857;28;655014;-69
2022/04/03 07:13:28;;;;;;;11.57;6.00;;;1.30;99.30;;;;;;4407897;28;655451;-68
2022/04/03 07:16:15;;;;;;;8.87;4.47;;;1.40;98.50;;;;;;4399060;28;655112;-68
2022/04/03 07:19:05;;;;;;;16.53;7.80;;;1.60;95.90;;;;;;4407596;28;653943;-68
2022/04/03 07:21:52;;;;;;;10.80;5.17;;;1.60;94.20;;;;;;4387437;28;655462;-68
2022/04/03 07:24:39;;;;;;;17.30;8.13;;;1.70;94.50;;;;;;4409111;28;654121;-68
2022/04/03 07:27:27;;;;;;;17.57;6.87;;;1.80;93.90;;;;;;4389356;28;655536;-68
2022/04/03 07:30:15;;;;;;;13.60;6.13;;;2.00;92.00;;;;;;4405454;28;655313;-67
2022/04/03 07:33:02;;;;;;;14.00;7.20;;;2.10;93.00;;;;;;4383317;28;654946;-68
2022/04/03 07:35:51;;;;;;;16.00;7.35;;;2.10;92.10;;;;;;4407548;28;654464;-68
2022/04/03 07:38:38;;;;;;;16.90;6.77;;;2.30;91.80;;;;;;4386436;28;654591;-68
2022/04/03 07:41:25;;;;;;;16.03;6.97;;;2.50;90.70;;;;;;4392070;28;654305;-68
2022/04/03 07:44:13;;;;;;;22.20;7.20;;;2.70;90.30;;;;;;4406149;28;654723;-68
2022/04/03 07:47:00;;;;;;;6.95;3.10;;;2.90;90.30;;;;;;4392122;28;654864;-68
2022/04/03 07:49:48;;;;;;;16.17;7.10;;;3.20;84.80;;;;;;4411940;28;653649;-68
2022/04/03 07:52:37;;;;;;;19.27;7.30;;;3.10;85.60;;;;;;4396548;28;654359;-68
2022/04/03 07:55:24;;;;;;;16.37;6.93;;;2.90;84.10;;;;;;4406396;28;655569;-68
2022/04/03 07:58:12;;;;;;;14.67;6.87;;;3.00;84.20;;;;;;4385705;28;654585;-68
2022/04/03 08:01:00;;;;;;;10.73;5.27;;;3.30;82.30;;;;;;4412017;28;653982;-68
2022/04/03 08:03:47;;;;;;;14.80;6.63;;;3.30;78.80;;;;;;4391744;28;655462;-68
2022/04/03 08:06:34;;;;;;;16.10;6.47;;;3.50;79.30;;;;;;4406361;28;654671;-68
2022/04/03 08:09:23;;;;;;;16.13;6.67;;;3.60;80.60;;;;;;4387133;28;654423;-68
2022/04/03 08:12:11;;;;;;;16.47;7.17;;;3.90;82.20;;;;;;4387734;28;654444;-68
2022/04/03 08:14:58;;;;;;;13.30;6.33;;;4.30;80.50;;;;;;4410327;28;654852;-68
2022/04/03 08:17:46;;;;;;;14.47;6.67;;;4.50;77.10;;;;;;4384683;28;654619;-68
2022/04/03 08:20:33;;;;;;;16.27;7.20;;;4.60;71.80;;;;;;4407649;28;654938;-68
2022/04/03 08:23:20;;;;;;;14.80;6.57;;;4.60;72.50;;;;;;4381742;28;654581;-68
2022/04/03 08:26:09;;;;;;;19.27;7.40;;;4.70;72.60;;;;;;4406749;28;655561;-68
2022/04/03 08:28:57;;;;;;;12.77;5.40;;;4.50;70.90;;;;;;4390746;28;654974;-68
2022/04/03 08:31:44;;;;;;;14.00;6.60;;;4.60;68.30;;;;;;4407779;28;654595;-67
2022/04/03 08:34:31;;;;;;;11.43;6.30;;;4.80;67.60;;;;;;4378755;28;654522;-67
2022/04/03 08:37:19;;;;;;;15.70;7.07;;;5.00;69.00;;;;;;4408357;28;655711;-67
2022/04/03 08:40:07;;;;;;;15.57;6.07;;;5.50;66.50;;;;;;4385863;28;655405;-68
2022/04/03 08:42:56;;;;;;;13.47;6.07;;;5.90;67.90;;;;;;4406419;28;654428;-67
2022/04/03 08:45:44;;;;;;;9.83;4.27;;;6.00;64.20;;;;;;4390094;28;654497;-67
2022/04/03 08:48:32;;;;;;;11.40;6.17;;;6.30;61.60;;;;;;4389713;28;653397;-67
2022/04/03 08:51:20;;;;;;;12.70;5.23;;;6.30;62.80;;;;;;4409859;28;654902;-68
2022/04/03 08:54:07;;;;;;;16.57;6.97;;;6.30;59.20;;;;;;4384857;28;656066;-68
2022/04/03 08:56:55;;;;;;;14.27;6.40;;;6.50;62.90;;;;;;4410065;28;653917;-68
2022/04/03 08:59:44;;;;;;;12.33;5.47;;;6.70;61.90;;;;;;4381850;28;655407;-68
2022/04/03 09:02:31;;;;;;;14.27;5.70;;;6.40;61.50;;;;;;4386659;28;654208;-68
2022/04/03 09:05:18;;;;;;;14.40;5.65;;;6.60;59.90;;;;;;4408506;28;655550;-68
2022/04/03 09:08:07;;;;;;;10.07;4.90;;;6.40;56.70;;;;;;4387337;28;654843;-67
2022/04/03 09:11:05;;;;;;;13.90;5.03;;;6.30;58.90;;;;;;4409966;28;654085;-68
2022/04/03 09:13:52;;;;;;;13.80;6.17;;;6.10;58.70;;;;;;4363788;28;655366;-67
2022/04/03 09:16:42;;;;;;;16.67;5.57;;;6.50;59.10;;;;;;4405112;28;654535;-68
2022/04/03 09:19:33;;;;;;;12.47;5.10;;;6.90;58.60;;;;;;4409042;28;654574;-68
2022/04/03 09:22:28;;;;;;;9.33;4.93;;;7.30;57.90;;;;;;4377155;28;654531;-68
2022/04/03 09:25:17;;;;;;;12.18;5.10;;;7.40;56.10;;;;;;4366338;28;653754;-67
2022/04/03 09:28:06;;;;;;;9.43;4.77;;;7.50;56.70;;;;;;4401443;28;655361;-67
2022/04/03 09:30:54;;;;;;;11.83;4.73;;;7.60;53.50;;;;;;4405014;28;654081;-67
2022/04/03 09:33:43;;;;;;;10.07;4.90;;;6.90;54.20;;;;;;4389519;28;654501;-68
2022/04/03 09:36:31;;;;;;;12.90;5.40;;;7.40;56.70;;;;;;4389717;28;655119;-68
2022/04/03 09:39:24;;;;;;;12.77;4.97;;;7.00;54.30;;;;;;4403610;28;654569;-67
2022/04/03 09:42:12;;;;;;;7.27;4.20;;;6.60;54.90;;;;;;4371736;28;655309;-67
2022/04/03 09:45:00;;;;;;;12.73;4.10;;;6.30;54.60;;;;;;4408227;28;653504;-68
2022/04/03 09:47:48;;;;;;;8.40;4.03;;;6.50;53.90;;;;;;4403505;28;656094;-68
2022/04/03 09:51:10;;;;;;;9.70;4.20;;;6.60;55.40;;;;;;4397717;28;653795;-67
2022/04/03 09:54:02;;;;;;;8.77;3.40;;;6.50;57.10;;;;;;4363143;28;653831;-68
2022/04/03 09:56:49;;;;;;;10.83;3.50;;;6.20;54.30;;;;;;4385820;28;654658;-67
2022/04/03 09:59:36;;;;;;;12.87;3.67;;;6.00;54.70;;;;;;4387880;28;654522;-67
2022/04/03 10:02:24;;;;;;;7.70;3.80;;;6.00;56.90;;;;;;4408492;28;655253;-67
2022/04/03 10:05:12;;;;;;;7.40;3.70;;;6.20;55.40;;;;;;4384289;28;653450;-67
2022/04/03 10:08:01;;;;;;;9.33;4.37;;;6.60;56.70;;;;;;4405829;28;653835;-67
2022/04/03 10:10:48;;;;;;;10.13;4.40;;;6.90;53.60;;;;;;4384422;28;654348;-67
2022/04/03 10:13:36;;;;;;;7.63;3.83;;;7.30;53.10;;;;;;4383336;28;655009;-67
2022/04/03 10:20:01;;;;;;;9.40;4.63;;;8.00;55.50;;;;;;4379922;28;653942;-68
2022/04/03 10:22:50;;;;;;;10.50;4.57;;;7.60;54.90;;;;;;4383789;28;653652;-68
2022/04/03 10:26:05;;;;;;;8.93;4.73;;;7.60;55.30;;;;;;4381949;28;655028;-68
2022/04/03 10:28:55;;;;;;;9.00;4.17;;;7.60;56.60;;;;;;4361021;28;654182;-68
2022/04/03 10:31:55;;;;;;;9.33;4.50;;;7.20;53.90;;;;;;4387787;28;654500;-68
2022/04/03 10:34:46;;;;;;;8.73;4.50;;;7.10;54.30;;;;;;4384727;28;653956;-68
2022/04/03 10:37:34;;;;;;;12.53;4.87;;;7.10;56.10;;;;;;4382611;28;654290;-68
2022/04/03 10:40:23;;;;;;;10.40;4.50;;;7.20;55.10;;;;;;4387842;28;654758;-68
2022/04/03 10:43:30;;;;;;;8.00;4.10;;;6.80;55.30;;;;;;4401917;28;654800;-67
2022/04/03 10:46:17;;;;;;;7.53;4.40;;;6.30;56.60;;;;;;4393513;28;653598;-67
2022/04/03 10:49:05;;;;;;;10.07;4.63;;;5.60;55.70;;;;;;4404781;28;653964;-67
2022/04/03 10:52:24;;;;;;;12.43;4.80;;;5.00;58.30;;;;;;4412556;28;655097;-67
2022/04/03 10:55:12;;;;;;;7.75;4.30;;;4.60;59.50;;;;;;4360269;28;655240;-67
2022/04/03 10:58:03;;;;;;;10.00;4.90;;;4.80;62.90;;;;;;4410585;28;653679;-67
2022/04/03 11:01:10;;;;;;;8.30;4.10;;;5.10;60.60;;;;;;4363063;28;655398;-68
2022/04/03 11:04:01;;;;;;;9.40;4.13;;;5.60;59.10;;;;;;4363332;28;654058;-68
2022/04/03 11:06:50;;;;;;;9.57;4.97;;;6.20;58.30;;;;;;4388648;28;656228;-68
2022/04/03 11:09:41;;;;;;;9.87;4.10;;;5.70;58.70;;;;;;4388727;28;654586;-68
2022/04/03 11:12:46;;;;;;;10.87;5.73;;;5.60;59.70;;;;;;4381920;28;653428;-68
2022/04/03 11:15:44;;;;;;;13.63;5.13;;;4.80;59.30;;;;;;4386818;28;654541;-67
2022/04/03 11:18:33;;;;;;;13.33;5.20;;;4.90;62.20;;;;;;4360969;28;654624;-67
2022/04/03 11:21:39;;;;;;;10.23;4.30;;;5.50;60.80;;;;;;4391234;28;656054;-67
2022/04/03 11:24:26;;;;;;;9.37;4.33;;;5.50;57.50;;;;;;4394153;28;654362;-67
2022/04/03 11:27:14;;;;;;;11.13;5.40;;;5.20;60.20;;;;;;4405913;28;654629;-67
2022/04/03 11:30:01;;;;;;;10.80;5.33;;;4.50;62.80;;;;;;4390941;28;654421;-67
2022/04/03 11:32:48;;;;;;;15.70;6.10;;;4.50;66.20;;;;;;4409233;28;655916;-67
2022/04/03 11:35:38;;;;;;;13.47;5.40;;;4.30;67.70;;;;;;4389567;28;654161;-67
2022/04/03 11:38:25;;;;;;;11.43;5.80;;;3.70;67.50;;;;;;4384576;28;654646;-67
2022/04/03 11:41:14;;;;;;;16.20;5.60;;;3.80;72.50;;;;;;4404689;28;655543;-67
2022/04/03 11:44:03;;;;;;;15.37;6.07;;;3.90;74.30;;;;;;4382839;28;654587;-67
2022/04/03 11:46:51;;;;;;;12.10;5.37;;;3.70;73.90;;;;;;4387169;28;654487;-67
2022/04/03 11:49:38;;;;;;;8.47;4.10;;;3.80;75.60;;;;;;4401980;28;654426;-67
2022/04/03 11:52:27;;;;;;;12.17;4.77;;;4.00;70.30;;;;;;4392014;28;654418;-67
2022/04/03 11:55:15;;;;;;;7.25;4.28;;;4.40;68.80;;;;;;4407572;28;654956;-67
2022/04/03 11:58:04;;;;;;;9.90;4.40;;;4.90;68.00;;;;;;4395281;28;653900;-67
2022/04/03 12:00:51;;;;;;;8.83;3.93;;;5.20;67.60;;;;;;4388116;28;653696;-67
2022/04/03 12:03:38;;;;;;;9.07;5.03;;;5.70;66.90;;;;;;4413566;28;654153;-67
2022/04/03 12:06:48;;;;;;;14.17;5.03;;;5.80;69.20;;;;;;4390966;28;653934;-67
2022/04/03 12:10:01;;;;;;;13.70;5.60;;;5.50;63.70;;;;;;4370278;28;654351;-67
2022/04/03 12:12:49;;;;;;;12.10;4.80;;;4.80;63.50;;;;;;4387529;28;654159;-67
2022/04/03 12:15:36;;;;;;;9.33;5.20;;;4.60;69.70;;;;;;4384044;28;654045;-67
2022/04/03 12:18:23;;;;;;;13.00;6.23;;;4.00;66.10;;;;;;4406385;28;654124;-67
2022/04/03 12:21:11;;;;;;;7.83;3.97;;;3.50;69.20;;;;;;4384701;28;655319;-67
2022/04/03 12:27:21;;;;;;;16.60;6.30;;;2.80;72.00;;;;;;4389132;28;655749;-67
2022/04/03 12:30:10;;;;;;;12.30;3.87;;;3.30;73.90;;;;;;4378946;28;654588;-67
2022/04/03 12:32:57;;;;;;;14.27;5.53;;;3.80;69.90;;;;;;4382094;28;655371;-67
2022/04/03 12:35:44;;;;;;;15.40;5.97;;;4.20;68.10;;;;;;4401073;28;654585;-67
2022/04/03 12:38:32;;;;;;;13.93;6.27;;;4.70;69.20;;;;;;4388217;28;654784;-67
2022/04/03 12:41:19;;;;;;;11.65;6.30;;;4.40;63.60;;;;;;4403397;28;654978;-67
2022/04/03 12:44:30;;;;;;;13.60;5.90;;;4.30;67.20;;;;;;4385374;28;655416;-67
2022/04/03 12:47:40;;;;;;;10.47;4.90;;;4.00;65.00;;;;;;4365800;28;655967;-67
2022/04/03 12:50:27;;;;;;;8.80;2.97;;;3.60;65.30;;;;;;4391667;28;654888;-66
2022/04/03 12:53:15;;;;;;;10.30;5.13;;;3.50;64.50;;;;;;4408547;28;654153;-67
2022/04/03 12:56:05;;;;;;;11.13;5.60;;;3.00;63.00;;;;;;4386810;28;655139;-66
2022/04/03 12:58:52;;;;;;;11.27;4.87;;;2.90;64.60;;;;;;4384066;28;655625;-67
2022/04/03 13:01:47;;;;;;;16.90;5.80;;;2.90;66.40;;;;;;4411900;28;654402;-67
2022/04/03 13:04:34;;;;;;;13.87;6.10;;;3.00;65.40;;;;;;4384566;28;654489;-67
2022/04/03 13:07:23;;;;;;;12.67;5.60;;;3.90;68.70;;;;;;4402121;28;654481;-68
2022/04/03 13:13:22;;;;;;;12.85;5.32;;;5.60;62.40;;;;;;4391919;28;654102;-67
2022/04/03 13:16:10;;;;;;;10.40;5.10;;;5.50;58.10;;;;;;4408753;28;654156;-67
2022/04/03 13:18:58;;;;;;;14.00;5.30;;;4.90;58.30;;;;;;4301637;28;655535;-67
2022/04/03 13:21:58;;;;;;;12.87;5.67;;;4.10;60.30;;;;;;4384837;28;654285;-66
2022/04/03 13:24:51;;;;;;;13.83;5.33;;;3.50;63.30;;;;;;4369618;28;654887;-66
2022/04/03 13:27:38;;;;;;;11.30;4.37;;;3.10;67.80;;;;;;4383015;28;655057;-66
2022/04/03 13:30:26;;;;;;;11.40;5.00;;;2.90;69.90;;;;;;4380721;28;654339;-66
2022/04/03 13:33:25;;;;;;;14.13;6.03;;;3.00;71.90;;;;;;4415048;28;654997;-66
2022/04/03 13:36:13;;;;;;;10.80;5.93;;;3.10;72.10;;;;;;4357599;28;654466;-66
2022/04/03 13:39:01;;;;;;;11.83;5.00;;;3.20;73.00;;;;;;4386090;28;654862;-66
2022/04/03 13:41:49;;;;;;;7.17;3.77;;;3.60;68.90;;;;;;4400593;28;654531;-66
2022/04/03 13:44:37;;;;;;;7.03;3.60;;;3.90;64.20;;;;;;4384029;28;654049;-66
2022/04/03 13:47:25;;;;;;;6.33;3.77;;;4.40;60.60;;;;;;4404453;28;653487;-67
2022/04/03 13:50:12;;;;;;;9.23;4.30;;;4.50;57.90;;;;;;4388974;28;655177;-67
2022/04/03 13:53:01;;;;;;;10.03;4.03;;;4.60;61.10;;;;;;4403870;28;654144;-67
2022/04/03 13:55:48;;;;;;;9.20;4.33;;;5.10;58.40;;;;;;4385273;28;655517;-67
2022/04/03 13:58:35;;;;;;;8.70;4.55;;;5.20;57.60;;;;;;4382012;28;653592;-66
2022/04/03 14:01:23;;;;;;;8.77;4.83;;;4.40;57.90;;;;;;4403013;28;654185;-66
2022/04/03 14:04:11;;;;;;;14.02;5.63;;;3.70;60.40;;;;;;4394994;28;653929;-66
2022/04/03 14:06:58;;;;;;;10.63;5.30;;;3.20;68.30;;;;;;4406089;28;655191;-66
2022/04/03 14:09:47;;;;;;;10.87;4.77;;;2.60;71.70;;;;;;4386896;28;654618;-66
2022/04/03 14:12:34;;;;;;;9.77;5.27;;;2.00;73.30;;;;;;4408001;28;654741;-66
2022/04/03 14:15:22;;;;;;;8.40;3.65;;;2.00;76.60;;;;;;4385870;28;653365;-66
2022/04/03 14:18:09;;;;;;;11.60;5.53;;;1.90;80.10;;;;;;4407683;28;652989;-66
2022/04/03 14:20:57;;;;;;;14.60;5.70;;;1.50;82.30;;;;;;4380016;28;654775;-66
2022/04/03 14:23:45;;;;;;;11.43;5.83;;;1.40;87.50;;;;;;4404152;28;654533;-66
2022/04/03 14:26:33;;;;;;;8.77;4.10;;;1.40;87.90;;;;;;4383790;28;655607;-66
2022/04/03 14:29:21;;;;;;;8.83;4.23;;;1.60;89.10;;;;;;4390374;28;653586;-66
2022/04/03 14:32:09;;;;;;;9.03;4.17;;;1.50;82.90;;;;;;4410251;28;653288;-66
2022/04/03 14:34:56;;;;;;;6.80;3.63;;;1.90;83.90;;;;;;4390348;28;654079;-66